Jupiter — WAK3719 — position and weather

sailwx.info

Track history (hours):
 
Tides and Currents Weather Stations Pressure Air Temp Water Temp Dewpoint Dewpoint Depression Visibility Wind Speed Wind Dir Waves Ship Positions

Jupiter

Owner: G & H Towing Company, GALVESTON, TX. More information available from US FCC via Universal Licensing System and Coast Guard Vessel Documentation Center.

Last reported at 2018-Feb-25 22:37 UTC. Time now 2018-Feb-25 23:56 UTC.
Position N 29°44' W 095°07'.

Length 27 m; draft 5 m.

Type: Tug. MMSI: 366921780.

Date/timePositionNaut miles runAvg speedWind from/ knotsBaromVisibWave heightAir tempDewpointWater temp
2018-Feb-25 22:37N 29°44' W 095°07'0 2.6
2018-Feb-25 22:30N 29°44' W 095°07'0 0.0
2018-Feb-25 19:50N 29°45' W 095°07'0 0.8
2018-Feb-25 19:29N 29°45' W 095°06'3 1.8
2018-Feb-25 17:35N 29°45' W 095°10'0 0.0
2018-Feb-25 17:14N 29°45' W 095°10'0 0.0
2018-Feb-25 16:59N 29°45' W 095°10'0 0.1
2018-Feb-25 13:40N 29°45' W 095°11'0 1.4
2018-Feb-25 13:24N 29°45' W 095°10'0 0.1
2018-Feb-25 11:00N 29°45' W 095°10'0 0.0
2018-Feb-25 10:01N 29°45' W 095°10'0 2.0
2018-Feb-25 09:55N 29°45' W 095°10'2 5.4
2018-Feb-25 09:29N 29°44' W 095°07'0 0.0
2018-Feb-25 08:55N 29°44' W 095°07'1 1.4
2018-Feb-25 08:30N 29°44' W 095°07'0 0.7
2018-Feb-25 07:54N 29°45' W 095°06'4 5.8
2018-Feb-25 07:17N 29°44' W 095°02'1 3.5
2018-Feb-25 06:59N 29°43' W 095°01'0 0.1
2018-Feb-25 06:30N 29°43' W 095°01'1 2.8
2018-Feb-25 06:00N 29°42' W 095°01'2 3.4
2018-Feb-25 05:30N 29°44' W 095°01'4 7.2
2018-Feb-25 05:00N 29°46' W 095°05'2 3.6
2018-Feb-25 04:22N 29°44' W 095°07'0 0.0
2018-Feb-25 04:01N 29°44' W 095°07'0 0.2
2018-Feb-25 02:10N 29°45' W 095°07'0 0.2
2018-Feb-25 02:00N 29°44' W 095°07'0 0.0
2018-Feb-25 01:23N 29°44' W 095°07'0 0.0
2018-Feb-25 00:56N 29°44' W 095°07'1 2.2
2018-Feb-25 00:29N 29°45' W 095°06'3 6.4
2018-Feb-25 00:00N 29°44' W 095°02'1 1.3
2018-Feb-24 23:08N 29°44' W 095°01'0 0.7
2018-Feb-24 23:00N 29°44' W 095°01'2 3.0
2018-Feb-24 22:31N 29°42' W 095°01'0 0.5
2018-Feb-24 22:00N 29°42' W 095°01'0 0.0
2018-Feb-24 21:30N 29°42' W 095°01'0 0.0
2018-Feb-24 21:00N 29°42' W 095°01'1 3.0
2018-Feb-24 20:30N 29°44' W 095°01'0 0.0
2018-Feb-24 20:00N 29°44' W 095°01'1 2.0
2018-Feb-24 19:28N 29°43' W 095°01'0 0.7
2018-Feb-24 18:53N 29°42' W 095°01'0 0.0
2018-Feb-24 18:29N 29°42' W 095°01'3 5.2
2018-Feb-24 17:56N 29°44' W 095°03'3 0.2
2018-Feb-24 02:59N 29°45' W 095°07'0 0.0
2018-Feb-24 02:23N 29°45' W 095°07'0 0.0
2018-Feb-24 01:53N 29°45' W 095°07'0 0.0
2018-Feb-23 21:35N 29°45' W 095°07'0 0.0
2018-Feb-23 21:11N 29°45' W 095°07'0 0.0
2018-Feb-23 20:53N 29°45' W 095°07'0 0.0
2018-Feb-23 20:28N 29°45' W 095°07'0 0.6
2018-Feb-23 19:38N 29°44' W 095°07'0 1.2
2018-Feb-23 19:15N 29°45' W 095°07'0 0.0
2018-Feb-23 18:50N 29°45' W 095°07'1 3.2
2018-Feb-23 18:30N 29°44' W 095°08'0 0.0
2018-Feb-23 18:00N 29°44' W 095°08'0 0.4
2018-Feb-23 17:30N 29°44' W 095°08'0 0.0
2018-Feb-23 16:57N 29°44' W 095°08'1 0.2
2018-Feb-23 12:34N 29°44' W 095°07'0 0.0
2018-Feb-23 12:19N 29°44' W 095°07'0 0.0
2018-Feb-23 11:49N 29°44' W 095°07'0 0.0
2018-Feb-23 08:46N 29°44' W 095°07'0 0.0
2018-Feb-23 08:16N 29°44' W 095°07'0 0.0
2018-Feb-23 07:58N 29°44' W 095°07'1 0.6
2018-Feb-23 06:19N 29°45' W 095°06'0 0.2
2018-Feb-23 05:59N 29°45' W 095°06'1 0.8
2018-Feb-23 04:39N 29°45' W 095°07'0 0.0
2018-Feb-23 04:30N 29°45' W 095°07'0 0.0
2018-Feb-23 03:54N 29°45' W 095°07'0 0.0
2018-Feb-23 03:27N 29°45' W 095°07'0 0.0
2018-Feb-23 02:57N 29°45' W 095°07'0 0.0
2018-Feb-23 02:24N 29°45' W 095°07'0 0.0
2018-Feb-23 02:00N 29°45' W 095°07'0 0.0
2018-Feb-22 23:54N 29°45' W 095°07'0 0.0
2018-Feb-22 23:18N 29°45' W 095°07'0 0.0
2018-Feb-22 23:00N 29°45' W 095°07'0 0.0
2018-Feb-22 21:36N 29°45' W 095°07'0 0.0
2018-Feb-22 18:32N 29°45' W 095°07'0 0.0
2018-Feb-22 18:23N 29°45' W 095°07'0 0.0
2018-Feb-22 06:54N 29°44' W 095°07'3 2.0
2018-Feb-22 05:29N 29°45' W 095°10'1 2.7
2018-Feb-22 04:56N 29°44' W 095°08'2 0.8
2018-Feb-22 02:45N 29°45' W 095°06'0 0.5
2018-Feb-22 02:18N 29°45' W 095°06'1 0.0
2018-Feb-21 07:49N 29°45' W 095°06'1 0.3
2018-Feb-21 03:09N 29°44' W 095°07'2 8.1
2018-Feb-21 02:54N 29°44' W 095°09'2 0.2
2018-Feb-20 17:33N 29°45' W 095°06'1 3.7
2018-Feb-20 17:14N 29°44' W 095°08'0 0.1
2018-Feb-20 16:55N 29°44' W 095°08'2 0.8
2018-Feb-20 14:01N 29°45' W 095°10'0 7.8
2018-Feb-20 14:00N 29°45' W 095°10'1 1.3
2018-Feb-20 13:23N 29°45' W 095°11'0 0.1
2018-Feb-20 09:44N 29°45' W 095°11'3 2.0
2018-Feb-20 08:22N 29°44' W 095°08'5 1.0
2018-Feb-20 03:22N 29°44' W 095°13'0 0.1
2018-Feb-20 00:48N 29°44' W 095°14'6 0.6
2018-Feb-19 15:06N 29°45' W 095°07'1 0.7
2018-Feb-19 14:12N 29°44' W 095°07'0 0.0
2018-Feb-19 13:56N 29°44' W 095°07'1 3.1
2018-Feb-19 13:30N 29°45' W 095°06'0 0.0
2018-Feb-19 13:00N 29°45' W 095°06'0 0.0
2018-Feb-19 12:10N 29°45' W 095°06'0 0.0
2018-Feb-19 11:59N 29°45' W 095°06'0 0.1
2018-Feb-19 11:30N 29°45' W 095°06'0 0.0
2018-Feb-19 10:59N 29°45' W 095°06'1 1.2
2018-Feb-19 10:22N 29°44' W 095°07'0 0.0
2018-Feb-19 09:55N 29°44' W 095°07'0 0.0
2018-Feb-19 09:25N 29°44' W 095°07'0 0.0
2018-Feb-19 08:58N 29°44' W 095°07'0 0.0
2018-Feb-19 08:25N 29°44' W 095°07'0 0.0
2018-Feb-19 07:58N 29°44' W 095°07'0 0.0
2018-Feb-19 07:28N 29°44' W 095°07'0 0.0
2018-Feb-19 06:55N 29°44' W 095°07'0 0.0
2018-Feb-19 06:28N 29°44' W 095°07'0 0.0
2018-Feb-19 05:55N 29°44' W 095°07'0 0.0
2018-Feb-19 05:28N 29°44' W 095°07'1 0.3
2018-Feb-19 01:51N 29°44' W 095°08'1 2.4
2018-Feb-19 01:26N 29°45' W 095°07'0 0.0
2018-Feb-19 00:56N 29°45' W 095°07'0 0.0
2018-Feb-19 00:28N 29°45' W 095°07'0 0.0
2018-Feb-18 23:57N 29°45' W 095°07'0 0.0
2018-Feb-18 23:21N 29°45' W 095°07'0 0.0
2018-Feb-18 22:59N 29°45' W 095°07'0 0.0
2018-Feb-18 22:28N 29°45' W 095°07'0 0.0
2018-Feb-18 22:00N 29°45' W 095°07'0 0.0
2018-Feb-18 21:30N 29°45' W 095°07'0 0.0
2018-Feb-18 20:52N 29°45' W 095°07'0 0.0
2018-Feb-18 20:30N 29°45' W 095°07'0 0.0
2018-Feb-18 19:58N 29°45' W 095°07'0 0.0
2018-Feb-18 19:22N 29°45' W 095°07'0 0.0
2018-Feb-18 18:58N 29°45' W 095°07'0 0.0
2018-Feb-18 18:29N 29°44' W 095°07'0 0.0
2018-Feb-18 17:57N 29°45' W 095°07'0 0.0
2018-Feb-18 17:26N 29°45' W 095°07'0 0.0
2018-Feb-18 16:48N 29°45' W 095°07'0 0.0
2018-Feb-18 16:29N 29°45' W 095°07'0 0.0
2018-Feb-18 15:58N 29°45' W 095°07'0 0.2
2018-Feb-18 14:46N 29°44' W 095°07'0 1.9
2018-Feb-18 14:30N 29°45' W 095°06'3 0.3
2018-Feb-18 05:06N 29°44' W 095°09'2 0.3
2018-Feb-17 21:53N 29°44' W 095°07'0 0.6
2018-Feb-17 21:16N 29°44' W 095°07'0 1.7
2018-Feb-17 21:00N 29°44' W 095°07'1 0.1
2018-Feb-16 23:41N 29°44' W 095°08'1 7.8
2018-Feb-16 23:30N 29°45' W 095°10'4 3.8
2018-Feb-16 22:34N 29°44' W 095°14'1 2.9
2018-Feb-16 22:23N 29°44' W 095°13'0 0.0
2018-Feb-16 22:00N 29°44' W 095°13'0 0.4
2018-Feb-16 21:28N 29°44' W 095°13'5 2.0
2018-Feb-16 19:01N 29°44' W 095°08'0 0.1
2018-Feb-16 18:55N 29°44' W 095°08'0 0.0
2018-Feb-16 18:30N 29°44' W 095°08'2 3.0
2018-Feb-16 18:00N 29°44' W 095°09'0 0.9
2018-Feb-16 17:30N 29°44' W 095°10'0 0.0
2018-Feb-16 17:00N 29°44' W 095°10'2 4.5
2018-Feb-16 16:30N 29°44' W 095°07'1 0.8
2018-Feb-16 15:51N 29°45' W 095°07'0 0.0
2018-Feb-16 15:27N 29°45' W 095°07'0 0.0
2018-Feb-16 15:00N 29°45' W 095°07'0 0.0
2018-Feb-16 14:30N 29°45' W 095°07'0 0.0
2018-Feb-16 13:57N 29°45' W 095°07'0 0.0
2018-Feb-16 04:53N 29°45' W 095°07'0 0.0
2018-Feb-16 04:29N 29°45' W 095°07'0 0.0
2018-Feb-16 03:14N 29°45' W 095°07'0 0.0
2018-Feb-16 02:56N 29°45' W 095°07'0 0.0
2018-Feb-16 02:26N 29°45' W 095°07'0 0.0
2018-Feb-16 01:50N 29°45' W 095°07'0 0.0
2018-Feb-16 01:23N 29°45' W 095°07'  
Track history (hours):
 
Tides and Currents Weather Stations Pressure Air Temp Water Temp Dewpoint Dewpoint Depression Visibility Wind Speed Wind Dir Waves Ship Positions

Jupiter

Owner: G & H Towing Company, GALVESTON, TX. More information available from US FCC via Universal Licensing System and Coast Guard Vessel Documentation Center.

Last reported at 2018-Feb-25 22:37 UTC. Time now 2018-Feb-25 23:56 UTC.
Position N 29°44' W 095°07'.

Length 27 m; draft 5 m.

Type: Tug. MMSI: 366921780.

Date/timePositionNaut miles runAvg speedWind from/ knotsBaromVisibWave heightAir tempDewpointWater temp
2018-Feb-25 22:37N 29°44' W 095°07'0 2.6
2018-Feb-25 22:30N 29°44' W 095°07'0 0.0
2018-Feb-25 19:50N 29°45' W 095°07'0 0.8
2018-Feb-25 19:29N 29°45' W 095°06'3 1.8
2018-Feb-25 17:35N 29°45' W 095°10'0 0.0
2018-Feb-25 17:14N 29°45' W 095°10'0 0.0
2018-Feb-25 16:59N 29°45' W 095°10'0 0.1
2018-Feb-25 13:40N 29°45' W 095°11'0 1.4
2018-Feb-25 13:24N 29°45' W 095°10'0 0.1
2018-Feb-25 11:00N 29°45' W 095°10'0 0.0
2018-Feb-25 10:01N 29°45' W 095°10'0 2.0
2018-Feb-25 09:55N 29°45' W 095°10'2 5.4
2018-Feb-25 09:29N 29°44' W 095°07'0 0.0
2018-Feb-25 08:55N 29°44' W 095°07'1 1.4
2018-Feb-25 08:30N 29°44' W 095°07'0 0.7
2018-Feb-25 07:54N 29°45' W 095°06'4 5.8
2018-Feb-25 07:17N 29°44' W 095°02'1 3.5
2018-Feb-25 06:59N 29°43' W 095°01'0 0.1
2018-Feb-25 06:30N 29°43' W 095°01'1 2.8
2018-Feb-25 06:00N 29°42' W 095°01'2 3.4
2018-Feb-25 05:30N 29°44' W 095°01'4 7.2
2018-Feb-25 05:00N 29°46' W 095°05'2 3.6
2018-Feb-25 04:22N 29°44' W 095°07'0 0.0
2018-Feb-25 04:01N 29°44' W 095°07'0 0.2
2018-Feb-25 02:10N 29°45' W 095°07'0 0.2
2018-Feb-25 02:00N 29°44' W 095°07'0 0.0
2018-Feb-25 01:23N 29°44' W 095°07'0 0.0
2018-Feb-25 00:56N 29°44' W 095°07'1 2.2
2018-Feb-25 00:29N 29°45' W 095°06'3 6.4
2018-Feb-25 00:00N 29°44' W 095°02'1 1.3
2018-Feb-24 23:08N 29°44' W 095°01'0 0.7
2018-Feb-24 23:00N 29°44' W 095°01'2 3.0
2018-Feb-24 22:31N 29°42' W 095°01'0 0.5
2018-Feb-24 22:00N 29°42' W 095°01'0 0.0
2018-Feb-24 21:30N 29°42' W 095°01'0 0.0
2018-Feb-24 21:00N 29°42' W 095°01'1 3.0
2018-Feb-24 20:30N 29°44' W 095°01'0 0.0
2018-Feb-24 20:00N 29°44' W 095°01'1 2.0
2018-Feb-24 19:28N 29°43' W 095°01'0 0.7
2018-Feb-24 18:53N 29°42' W 095°01'0 0.0
2018-Feb-24 18:29N 29°42' W 095°01'3 5.2
2018-Feb-24 17:56N 29°44' W 095°03'3 0.2
2018-Feb-24 02:59N 29°45' W 095°07'0 0.0
2018-Feb-24 02:23N 29°45' W 095°07'0 0.0
2018-Feb-24 01:53N 29°45' W 095°07'0 0.0
2018-Feb-23 21:35N 29°45' W 095°07'0 0.0
2018-Feb-23 21:11N 29°45' W 095°07'0 0.0
2018-Feb-23 20:53N 29°45' W 095°07'0 0.0
2018-Feb-23 20:28N 29°45' W 095°07'0 0.6
2018-Feb-23 19:38N 29°44' W 095°07'0 1.2
2018-Feb-23 19:15N 29°45' W 095°07'0 0.0
2018-Feb-23 18:50N 29°45' W 095°07'1 3.2
2018-Feb-23 18:30N 29°44' W 095°08'0 0.0
2018-Feb-23 18:00N 29°44' W 095°08'0 0.4
2018-Feb-23 17:30N 29°44' W 095°08'0 0.0
2018-Feb-23 16:57N 29°44' W 095°08'1 0.2
2018-Feb-23 12:34N 29°44' W 095°07'0 0.0
2018-Feb-23 12:19N 29°44' W 095°07'0 0.0
2018-Feb-23 11:49N 29°44' W 095°07'0 0.0
2018-Feb-23 08:46N 29°44' W 095°07'0 0.0
2018-Feb-23 08:16N 29°44' W 095°07'0 0.0
2018-Feb-23 07:58N 29°44' W 095°07'1 0.6
2018-Feb-23 06:19N 29°45' W 095°06'0 0.2
2018-Feb-23 05:59N 29°45' W 095°06'1 0.8
2018-Feb-23 04:39N 29°45' W 095°07'0 0.0
2018-Feb-23 04:30N 29°45' W 095°07'0 0.0
2018-Feb-23 03:54N 29°45' W 095°07'0 0.0
2018-Feb-23 03:27N 29°45' W 095°07'0 0.0
2018-Feb-23 02:57N 29°45' W 095°07'0 0.0
2018-Feb-23 02:24N 29°45' W 095°07'0 0.0
2018-Feb-23 02:00N 29°45' W 095°07'0 0.0
2018-Feb-22 23:54N 29°45' W 095°07'0 0.0
2018-Feb-22 23:18N 29°45' W 095°07'0 0.0
2018-Feb-22 23:00N 29°45' W 095°07'0 0.0
2018-Feb-22 21:36N 29°45' W 095°07'0 0.0
2018-Feb-22 18:32N 29°45' W 095°07'0 0.0
2018-Feb-22 18:23N 29°45' W 095°07'0 0.0
2018-Feb-22 06:54N 29°44' W 095°07'3 2.0
2018-Feb-22 05:29N 29°45' W 095°10'1 2.7
2018-Feb-22 04:56N 29°44' W 095°08'2 0.8
2018-Feb-22 02:45N 29°45' W 095°06'0 0.5
2018-Feb-22 02:18N 29°45' W 095°06'1 0.0
2018-Feb-21 07:49N 29°45' W 095°06'1 0.3
2018-Feb-21 03:09N 29°44' W 095°07'2 8.1
2018-Feb-21 02:54N 29°44' W 095°09'2 0.2
2018-Feb-20 17:33N 29°45' W 095°06'1 3.7
2018-Feb-20 17:14N 29°44' W 095°08'0 0.1
2018-Feb-20 16:55N 29°44' W 095°08'2 0.8
2018-Feb-20 14:01N 29°45' W 095°10'0 7.8
2018-Feb-20 14:00N 29°45' W 095°10'1 1.3
2018-Feb-20 13:23N 29°45' W 095°11'0 0.1
2018-Feb-20 09:44N 29°45' W 095°11'3 2.0
2018-Feb-20 08:22N 29°44' W 095°08'5 1.0
2018-Feb-20 03:22N 29°44' W 095°13'0 0.1
2018-Feb-20 00:48N 29°44' W 095°14'6 0.6
2018-Feb-19 15:06N 29°45' W 095°07'1 0.7
2018-Feb-19 14:12N 29°44' W 095°07'0 0.0
2018-Feb-19 13:56N 29°44' W 095°07'1 3.1
2018-Feb-19 13:30N 29°45' W 095°06'0 0.0
2018-Feb-19 13:00N 29°45' W 095°06'0 0.0
2018-Feb-19 12:10N 29°45' W 095°06'0 0.0
2018-Feb-19 11:59N 29°45' W 095°06'0 0.1
2018-Feb-19 11:30N 29°45' W 095°06'0 0.0
2018-Feb-19 10:59N 29°45' W 095°06'1 1.2
2018-Feb-19 10:22N 29°44' W 095°07'0 0.0
2018-Feb-19 09:55N 29°44' W 095°07'0 0.0
2018-Feb-19 09:25N 29°44' W 095°07'0 0.0
2018-Feb-19 08:58N 29°44' W 095°07'0 0.0
2018-Feb-19 08:25N 29°44' W 095°07'0 0.0
2018-Feb-19 07:58N 29°44' W 095°07'0 0.0
2018-Feb-19 07:28N 29°44' W 095°07'0 0.0
2018-Feb-19 06:55N 29°44' W 095°07'0 0.0
2018-Feb-19 06:28N 29°44' W 095°07'0 0.0
2018-Feb-19 05:55N 29°44' W 095°07'0 0.0
2018-Feb-19 05:28N 29°44' W 095°07'1 0.3
2018-Feb-19 01:51N 29°44' W 095°08'1 2.4
2018-Feb-19 01:26N 29°45' W 095°07'0 0.0
2018-Feb-19 00:56N 29°45' W 095°07'0 0.0
2018-Feb-19 00:28N 29°45' W 095°07'0 0.0
2018-Feb-18 23:57N 29°45' W 095°07'0 0.0
2018-Feb-18 23:21N 29°45' W 095°07'0 0.0
2018-Feb-18 22:59N 29°45' W 095°07'0 0.0
2018-Feb-18 22:28N 29°45' W 095°07'0 0.0
2018-Feb-18 22:00N 29°45' W 095°07'0 0.0
2018-Feb-18 21:30N 29°45' W 095°07'0 0.0
2018-Feb-18 20:52N 29°45' W 095°07'0 0.0
2018-Feb-18 20:30N 29°45' W 095°07'0 0.0
2018-Feb-18 19:58N 29°45' W 095°07'0 0.0
2018-Feb-18 19:22N 29°45' W 095°07'0 0.0
2018-Feb-18 18:58N 29°45' W 095°07'0 0.0
2018-Feb-18 18:29N 29°44' W 095°07'0 0.0
2018-Feb-18 17:57N 29°45' W 095°07'0 0.0
2018-Feb-18 17:26N 29°45' W 095°07'0 0.0
2018-Feb-18 16:48N 29°45' W 095°07'0 0.0
2018-Feb-18 16:29N 29°45' W 095°07'0 0.0
2018-Feb-18 15:58N 29°45' W 095°07'0 0.2
2018-Feb-18 14:46N 29°44' W 095°07'0 1.9
2018-Feb-18 14:30N 29°45' W 095°06'3 0.3
2018-Feb-18 05:06N 29°44' W 095°09'2 0.3
2018-Feb-17 21:53N 29°44' W 095°07'0 0.6
2018-Feb-17 21:16N 29°44' W 095°07'0 1.7
2018-Feb-17 21:00N 29°44' W 095°07'1 0.1
2018-Feb-16 23:41N 29°44' W 095°08'1 7.8
2018-Feb-16 23:30N 29°45' W 095°10'4 3.8
2018-Feb-16 22:34N 29°44' W 095°14'1 2.9
2018-Feb-16 22:23N 29°44' W 095°13'0 0.0
2018-Feb-16 22:00N 29°44' W 095°13'0 0.4
2018-Feb-16 21:28N 29°44' W 095°13'5 2.0
2018-Feb-16 19:01N 29°44' W 095°08'0 0.1
2018-Feb-16 18:55N 29°44' W 095°08'0 0.0
2018-Feb-16 18:30N 29°44' W 095°08'2 3.0
2018-Feb-16 18:00N 29°44' W 095°09'0 0.9
2018-Feb-16 17:30N 29°44' W 095°10'0 0.0
2018-Feb-16 17:00N 29°44' W 095°10'2 4.5
2018-Feb-16 16:30N 29°44' W 095°07'1 0.8
2018-Feb-16 15:51N 29°45' W 095°07'0 0.0
2018-Feb-16 15:27N 29°45' W 095°07'0 0.0
2018-Feb-16 15:00N 29°45' W 095°07'0 0.0
2018-Feb-16 14:30N 29°45' W 095°07'0 0.0
2018-Feb-16 13:57N 29°45' W 095°07'0 0.0
2018-Feb-16 04:53N 29°45' W 095°07'0 0.0
2018-Feb-16 04:29N 29°45' W 095°07'0 0.0
2018-Feb-16 03:14N 29°45' W 095°07'0 0.0
2018-Feb-16 02:56N 29°45' W 095°07'0 0.0
2018-Feb-16 02:26N 29°45' W 095°07'0 0.0
2018-Feb-16 01:50N 29°45' W 095°07'0 0.0
2018-Feb-16 01:23N 29°45' W 095°07'  

Dump ship's entire track history